sensor_id;sensor_type;location;lat;lon;timestamp;P1;durP1;ratioP1;P2;durP2;ratioP2
77174;SDS011;66153;53.488;10.244;2023-02-24T00:01:14;4.45;;;0.93;;
77174;SDS011;66153;53.488;10.244;2023-02-24T00:03:52;5.32;;;0.57;;
77174;SDS011;66153;53.488;10.244;2023-02-24T00:06:21;3.08;;;0.60;;
77174;SDS011;66153;53.488;10.244;2023-02-24T00:08:47;2.17;;;0.45;;
77174;SDS011;66153;53.488;10.244;2023-02-24T00:11:14;3.17;;;1.13;;
77174;SDS011;66153;53.488;10.244;2023-02-24T00:13:41;4.50;;;0.80;;
77174;SDS011;66153;53.488;10.244;2023-02-24T00:16:11;3.67;;;0.57;;
77174;SDS011;66153;53.488;10.244;2023-02-24T00:18:37;3.70;;;0.77;;
77174;SDS011;66153;53.488;10.244;2023-02-24T00:21:07;5.85;;;0.82;;
77174;SDS011;66153;53.488;10.244;2023-02-24T00:23:35;3.65;;;0.68;;
77174;SDS011;66153;53.488;10.244;2023-02-24T00:26:02;7.07;;;1.13;;
77174;SDS011;66153;53.488;10.244;2023-02-24T00:28:28;4.95;;;0.80;;
77174;SDS011;66153;53.488;10.244;2023-02-24T00:30:55;2.75;;;0.80;;
77174;SDS011;66153;53.488;10.244;2023-02-24T00:33:21;5.60;;;0.70;;
77174;SDS011;66153;53.488;10.244;2023-02-24T00:35:48;3.25;;;0.75;;
77174;SDS011;66153;53.488;10.244;2023-02-24T00:38:14;4.75;;;0.70;;
77174;SDS011;66153;53.488;10.244;2023-02-24T00:40:40;4.85;;;0.95;;
77174;SDS011;66153;53.488;10.244;2023-02-24T00:43:09;2.80;;;0.68;;
77174;SDS011;66153;53.488;10.244;2023-02-24T00:45:36;2.97;;;0.80;;
77174;SDS011;66153;53.488;10.244;2023-02-24T00:48:03;3.47;;;0.80;;
77174;SDS011;66153;53.488;10.244;2023-02-24T00:50:29;2.17;;;0.77;;
77174;SDS011;66153;53.488;10.244;2023-02-24T00:52:55;3.45;;;0.60;;
77174;SDS011;66153;53.488;10.244;2023-02-24T00:55:21;3.28;;;0.85;;
77174;SDS011;66153;53.488;10.244;2023-02-24T00:57:48;2.92;;;0.60;;
77174;SDS011;66153;53.488;10.244;2023-02-24T01:00:15;4.45;;;0.80;;
77174;SDS011;66153;53.488;10.244;2023-02-24T01:02:41;6.80;;;0.80;;
77174;SDS011;66153;53.488;10.244;2023-02-24T01:05:11;2.05;;;0.70;;
77174;SDS011;66153;53.488;10.244;2023-02-24T01:07:37;3.83;;;0.65;;
77174;SDS011;66153;53.488;10.244;2023-02-24T01:10:04;4.20;;;0.68;;
77174;SDS011;66153;53.488;10.244;2023-02-24T01:12:32;2.38;;;0.80;;
77174;SDS011;66153;53.488;10.244;2023-02-24T01:15:15;4.22;;;0.82;;
77174;SDS011;66153;53.488;10.244;2023-02-24T01:17:41;4.03;;;0.88;;
77174;SDS011;66153;53.488;10.244;2023-02-24T01:20:08;5.63;;;0.60;;
77174;SDS011;66153;53.488;10.244;2023-02-24T01:22:42;3.50;;;0.70;;
77174;SDS011;66153;53.488;10.244;2023-02-24T01:25:08;6.38;;;0.80;;
77174;SDS011;66153;53.488;10.244;2023-02-24T01:27:34;5.22;;;0.60;;
77174;SDS011;66153;53.488;10.244;2023-02-24T01:30:09;3.83;;;0.50;;
77174;SDS011;66153;53.488;10.244;2023-02-24T01:32:40;3.65;;;0.55;;
77174;SDS011;66153;53.488;10.244;2023-02-24T01:35:06;3.88;;;0.63;;
77174;SDS011;66153;53.488;10.244;2023-02-24T01:37:33;5.40;;;0.90;;
77174;SDS011;66153;53.488;10.244;2023-02-24T01:39:59;2.25;;;0.50;;
77174;SDS011;66153;53.488;10.244;2023-02-24T01:42:34;4.03;;;0.60;;
77174;SDS011;66153;53.488;10.244;2023-02-24T01:45:02;1.63;;;0.90;;
77174;SDS011;66153;53.488;10.244;2023-02-24T01:47:29;3.20;;;0.73;;
77174;SDS011;66153;53.488;10.244;2023-02-24T01:49:55;5.97;;;0.90;;
77174;SDS011;66153;53.488;10.244;2023-02-24T01:52:31;6.13;;;0.60;;
77174;SDS011;66153;53.488;10.244;2023-02-24T01:55:00;3.80;;;0.70;;
77174;SDS011;66153;53.488;10.244;2023-02-24T01:57:28;2.50;;;0.63;;
77174;SDS011;66153;53.488;10.244;2023-02-24T01:59:56;5.60;;;0.60;;
77174;SDS011;66153;53.488;10.244;2023-02-24T02:02:33;4.10;;;0.60;;
77174;SDS011;66153;53.488;10.244;2023-02-24T02:05:02;4.60;;;1.20;;
77174;SDS011;66153;53.488;10.244;2023-02-24T02:07:29;3.53;;;0.70;;
77174;SDS011;66153;53.488;10.244;2023-02-24T02:09:58;7.63;;;0.90;;
77174;SDS011;66153;53.488;10.244;2023-02-24T02:12:28;2.78;;;0.77;;
77174;SDS011;66153;53.488;10.244;2023-02-24T02:14:55;2.85;;;0.80;;
77174;SDS011;66153;53.488;10.244;2023-02-24T02:25:47;4.15;;;0.82;;
77174;SDS011;66153;53.488;10.244;2023-02-24T02:36:21;5.55;;;0.73;;
77174;SDS011;66153;53.488;10.244;2023-02-24T02:41:43;4.95;;;0.95;;
77174;SDS011;66153;53.488;10.244;2023-02-24T02:46:45;4.53;;;1.40;;
77174;SDS011;66153;53.488;10.244;2023-02-24T02:51:46;6.30;;;1.17;;
77174;SDS011;66153;53.488;10.244;2023-02-24T02:54:17;8.52;;;1.00;;
77174;SDS011;66153;53.488;10.244;2023-02-24T02:56:57;3.13;;;0.80;;
77174;SDS011;66153;53.488;10.244;2023-02-24T02:59:25;5.28;;;0.82;;
77174;SDS011;66153;53.488;10.244;2023-02-24T03:01:54;6.70;;;1.13;;
77174;SDS011;66153;53.488;10.244;2023-02-24T03:04:35;2.30;;;0.55;;
77174;SDS011;66153;53.488;10.244;2023-02-24T03:07:01;5.43;;;0.93;;
77174;SDS011;66153;53.488;10.244;2023-02-24T03:09:29;4.10;;;0.60;;
77174;SDS011;66153;53.488;10.244;2023-02-24T03:11:57;5.38;;;0.93;;
77174;SDS011;66153;53.488;10.244;2023-02-24T03:14:27;4.50;;;0.70;;
77174;SDS011;66153;53.488;10.244;2023-02-24T03:16:54;9.32;;;1.35;;
77174;SDS011;66153;53.488;10.244;2023-02-24T03:19:24;4.35;;;0.68;;
77174;SDS011;66153;53.488;10.244;2023-02-24T03:21:52;2.65;;;0.60;;
77174;SDS011;66153;53.488;10.244;2023-02-24T03:24:22;3.25;;;0.88;;
77174;SDS011;66153;53.488;10.244;2023-02-24T03:29:28;3.78;;;0.77;;
77174;SDS011;66153;53.488;10.244;2023-02-24T03:31:59;2.55;;;1.10;;
77174;SDS011;66153;53.488;10.244;2023-02-24T03:36:55;5.40;;;0.63;;
77174;SDS011;66153;53.488;10.244;2023-02-24T03:39:21;2.80;;;0.60;;
77174;SDS011;66153;53.488;10.244;2023-02-24T03:41:49;4.57;;;0.60;;
77174;SDS011;66153;53.488;10.244;2023-02-24T03:44:20;6.03;;;1.17;;
77174;SDS011;66153;53.488;10.244;2023-02-24T03:46:46;6.07;;;0.70;;
77174;SDS011;66153;53.488;10.244;2023-02-24T03:49:12;1.50;;;0.60;;
77174;SDS011;66153;53.488;10.244;2023-02-24T03:51:40;5.80;;;1.05;;
77174;SDS011;66153;53.488;10.244;2023-02-24T03:54:21;5.68;;;0.73;;
77174;SDS011;66153;53.488;10.244;2023-02-24T04:02:19;2.60;;;0.80;;
77174;SDS011;66153;53.488;10.244;2023-02-24T04:09:46;3.95;;;0.85;;
77174;SDS011;66153;53.488;10.244;2023-02-24T04:14:53;3.72;;;0.85;;
77174;SDS011;66153;53.488;10.244;2023-02-24T04:17:22;2.70;;;0.50;;
77174;SDS011;66153;53.488;10.244;2023-02-24T04:19:52;5.53;;;0.68;;
77174;SDS011;66153;53.488;10.244;2023-02-24T04:22:19;4.65;;;0.55;;
77174;SDS011;66153;53.488;10.244;2023-02-24T04:24:49;6.07;;;0.80;;
77174;SDS011;66153;53.488;10.244;2023-02-24T04:27:15;2.55;;;0.60;;
77174;SDS011;66153;53.488;10.244;2023-02-24T04:29:45;4.55;;;0.68;;
77174;SDS011;66153;53.488;10.244;2023-02-24T04:32:13;3.30;;;0.70;;
77174;SDS011;66153;53.488;10.244;2023-02-24T04:37:06;4.35;;;0.55;;
77174;SDS011;66153;53.488;10.244;2023-02-24T04:39:32;4.72;;;0.50;;
77174;SDS011;66153;53.488;10.244;2023-02-24T04:42:02;3.05;;;0.57;;
77174;SDS011;66153;53.488;10.244;2023-02-24T04:44:29;1.60;;;0.73;;
77174;SDS011;66153;53.488;10.244;2023-02-24T04:54:16;1.05;;;0.40;;
77174;SDS011;66153;53.488;10.244;2023-02-24T04:56:46;3.60;;;0.63;;
77174;SDS011;66153;53.488;10.244;2023-02-24T04:59:14;2.28;;;0.43;;
77174;SDS011;66153;53.488;10.244;2023-02-24T05:01:41;1.55;;;0.60;;
77174;SDS011;66153;53.488;10.244;2023-02-24T05:04:08;1.88;;;0.52;;
77174;SDS011;66153;53.488;10.244;2023-02-24T05:06:35;5.13;;;0.65;;
77174;SDS011;66153;53.488;10.244;2023-02-24T05:09:05;5.07;;;0.98;;
77174;SDS011;66153;53.488;10.244;2023-02-24T05:11:38;3.25;;;0.77;;
77174;SDS011;66153;53.488;10.244;2023-02-24T05:14:06;2.00;;;0.73;;
77174;SDS011;66153;53.488;10.244;2023-02-24T05:16:32;3.17;;;0.70;;
77174;SDS011;66153;53.488;10.244;2023-02-24T05:18:58;3.10;;;0.73;;
77174;SDS011;66153;53.488;10.244;2023-02-24T05:21:43;2.53;;;0.80;;
77174;SDS011;66153;53.488;10.244;2023-02-24T05:24:09;2.97;;;0.93;;
77174;SDS011;66153;53.488;10.244;2023-02-24T05:26:37;2.08;;;0.80;;
77174;SDS011;66153;53.488;10.244;2023-02-24T05:29:05;2.58;;;0.60;;
77174;SDS011;66153;53.488;10.244;2023-02-24T05:31:31;2.85;;;0.98;;
77174;SDS011;66153;53.488;10.244;2023-02-24T05:33:59;3.33;;;0.75;;
77174;SDS011;66153;53.488;10.244;2023-02-24T05:36:27;4.63;;;0.60;;
77174;SDS011;66153;53.488;10.244;2023-02-24T05:38:54;2.88;;;0.70;;
77174;SDS011;66153;53.488;10.244;2023-02-24T05:41:30;3.95;;;0.95;;
77174;SDS011;66153;53.488;10.244;2023-02-24T05:43:59;2.35;;;0.73;;
77174;SDS011;66153;53.488;10.244;2023-02-24T05:46:29;6.97;;;0.80;;
77174;SDS011;66153;53.488;10.244;2023-02-24T05:48:57;4.97;;;1.13;;
77174;SDS011;66153;53.488;10.244;2023-02-24T05:51:23;4.05;;;0.85;;
77174;SDS011;66153;53.488;10.244;2023-02-24T05:53:50;2.30;;;0.80;;
77174;SDS011;66153;53.488;10.244;2023-02-24T05:56:20;4.00;;;0.65;;
77174;SDS011;66153;53.488;10.244;2023-02-24T05:58:46;2.20;;;0.80;;
77174;SDS011;66153;53.488;10.244;2023-02-24T06:01:13;6.00;;;1.10;;
77174;SDS011;66153;53.488;10.244;2023-02-24T06:03:43;4.82;;;0.80;;
77174;SDS011;66153;53.488;10.244;2023-02-24T06:06:12;6.35;;;1.55;;
77174;SDS011;66153;53.488;10.244;2023-02-24T06:08:39;3.92;;;1.20;;
77174;SDS011;66153;53.488;10.244;2023-02-24T06:11:14;3.08;;;0.90;;
77174;SDS011;66153;53.488;10.244;2023-02-24T06:13:41;4.75;;;1.20;;
77174;SDS011;66153;53.488;10.244;2023-02-24T06:16:16;4.80;;;1.00;;
77174;SDS011;66153;53.488;10.244;2023-02-24T06:18:46;3.80;;;1.02;;
77174;SDS011;66153;53.488;10.244;2023-02-24T06:21:13;2.88;;;1.13;;
77174;SDS011;66153;53.488;10.244;2023-02-24T06:23:39;5.85;;;1.20;;
77174;SDS011;66153;53.488;10.244;2023-02-24T06:26:05;4.90;;;1.00;;
77174;SDS011;66153;53.488;10.244;2023-02-24T06:28:36;5.53;;;1.13;;
77174;SDS011;66153;53.488;10.244;2023-02-24T06:31:03;4.55;;;1.08;;
77174;SDS011;66153;53.488;10.244;2023-02-24T06:33:31;5.63;;;1.50;;
77174;SDS011;66153;53.488;10.244;2023-02-24T06:35:58;3.30;;;1.30;;
77174;SDS011;66153;53.488;10.244;2023-02-24T06:38:24;5.28;;;1.30;;
77174;SDS011;66153;53.488;10.244;2023-02-24T06:40:50;3.92;;;1.20;;
77174;SDS011;66153;53.488;10.244;2023-02-24T06:43:16;5.43;;;1.17;;
77174;SDS011;66153;53.488;10.244;2023-02-24T06:45:43;3.20;;;1.30;;
77174;SDS011;66153;53.488;10.244;2023-02-24T06:48:09;6.63;;;1.65;;
77174;SDS011;66153;53.488;10.244;2023-02-24T06:50:36;3.33;;;0.90;;
77174;SDS011;66153;53.488;10.244;2023-02-24T06:53:02;6.20;;;1.63;;
77174;SDS011;66153;53.488;10.244;2023-02-24T06:55:28;6.45;;;1.40;;
77174;SDS011;66153;53.488;10.244;2023-02-24T06:57:55;6.60;;;1.70;;
77174;SDS011;66153;53.488;10.244;2023-02-24T07:00:27;3.10;;;1.45;;
77174;SDS011;66153;53.488;10.244;2023-02-24T07:03:07;4.55;;;1.77;;
77174;SDS011;66153;53.488;10.244;2023-02-24T07:05:50;6.90;;;2.08;;
77174;SDS011;66153;53.488;10.244;2023-02-24T07:08:35;4.15;;;1.88;;
77174;SDS011;66153;53.488;10.244;2023-02-24T07:11:01;6.93;;;2.40;;
77174;SDS011;66153;53.488;10.244;2023-02-24T07:13:30;5.60;;;2.15;;
77174;SDS011;66153;53.488;10.244;2023-02-24T07:15:58;6.38;;;2.05;;
77174;SDS011;66153;53.488;10.244;2023-02-24T07:18:28;9.05;;;2.35;;
77174;SDS011;66153;53.488;10.244;2023-02-24T07:20:54;7.30;;;2.63;;
77174;SDS011;66153;53.488;10.244;2023-02-24T07:23:25;5.90;;;2.53;;
77174;SDS011;66153;53.488;10.244;2023-02-24T07:28:22;4.93;;;1.95;;
77174;SDS011;66153;53.488;10.244;2023-02-24T07:30:49;9.15;;;2.10;;
77174;SDS011;66153;53.488;10.244;2023-02-24T07:33:16;8.40;;;2.83;;
77174;SDS011;66153;53.488;10.244;2023-02-24T07:35:48;10.27;;;2.65;;
77174;SDS011;66153;53.488;10.244;2023-02-24T07:38:15;7.55;;;2.58;;
77174;SDS011;66153;53.488;10.244;2023-02-24T07:40:43;7.22;;;3.15;;
77174;SDS011;66153;53.488;10.244;2023-02-24T07:45:37;7.80;;;2.85;;
77174;SDS011;66153;53.488;10.244;2023-02-24T07:48:03;6.25;;;3.08;;
77174;SDS011;66153;53.488;10.244;2023-02-24T07:50:29;13.68;;;3.85;;
77174;SDS011;66153;53.488;10.244;2023-02-24T07:52:56;8.05;;;3.83;;
77174;SDS011;66153;53.488;10.244;2023-02-24T07:55:23;6.05;;;2.97;;
77174;SDS011;66153;53.488;10.244;2023-02-24T07:57:55;7.78;;;3.72;;
77174;SDS011;66153;53.488;10.244;2023-02-24T08:00:21;7.85;;;3.80;;
77174;SDS011;66153;53.488;10.244;2023-02-24T08:02:53;6.90;;;3.20;;
77174;SDS011;66153;53.488;10.244;2023-02-24T08:05:19;7.85;;;3.90;;
77174;SDS011;66153;53.488;10.244;2023-02-24T08:07:46;7.28;;;3.75;;
77174;SDS011;66153;53.488;10.244;2023-02-24T08:10:14;7.40;;;3.38;;
77174;SDS011;66153;53.488;10.244;2023-02-24T08:12:53;10.02;;;4.03;;
77174;SDS011;66153;53.488;10.244;2023-02-24T08:15:23;8.68;;;3.90;;
77174;SDS011;66153;53.488;10.244;2023-02-24T08:17:53;8.57;;;3.80;;
77174;SDS011;66153;53.488;10.244;2023-02-24T08:25:22;9.40;;;3.30;;
77174;SDS011;66153;53.488;10.244;2023-02-24T08:27:50;9.82;;;4.10;;
77174;SDS011;66153;53.488;10.244;2023-02-24T08:30:29;9.60;;;4.13;;
77174;SDS011;66153;53.488;10.244;2023-02-24T08:33:02;6.50;;;3.53;;
77174;SDS011;66153;53.488;10.244;2023-02-24T08:35:30;7.72;;;3.83;;
77174;SDS011;66153;53.488;10.244;2023-02-24T08:38:00;7.78;;;3.67;;
77174;SDS011;66153;53.488;10.244;2023-02-24T08:40:32;10.02;;;4.93;;
77174;SDS011;66153;53.488;10.244;2023-02-24T08:42:59;8.88;;;4.00;;
77174;SDS011;66153;53.488;10.244;2023-02-24T08:45:40;11.38;;;4.03;;
77174;SDS011;66153;53.488;10.244;2023-02-24T08:48:08;7.40;;;3.92;;
77174;SDS011;66153;53.488;10.244;2023-02-24T08:50:43;8.27;;;4.22;;
77174;SDS011;66153;53.488;10.244;2023-02-24T08:53:13;7.15;;;3.47;;
77174;SDS011;66153;53.488;10.244;2023-02-24T08:55:46;9.90;;;3.67;;
77174;SDS011;66153;53.488;10.244;2023-02-24T08:58:16;5.78;;;2.55;;
77174;SDS011;66153;53.488;10.244;2023-02-24T09:00:45;8.07;;;3.92;;
77174;SDS011;66153;53.488;10.244;2023-02-24T09:03:17;9.57;;;3.75;;
77174;SDS011;66153;53.488;10.244;2023-02-24T09:08:22;4.80;;;3.20;;
77174;SDS011;66153;53.488;10.244;2023-02-24T09:10:48;6.53;;;3.30;;
77174;SDS011;66153;53.488;10.244;2023-02-24T09:13:14;4.93;;;3.00;;
77174;SDS011;66153;53.488;10.244;2023-02-24T09:15:40;4.82;;;2.90;;
77174;SDS011;66153;53.488;10.244;2023-02-24T09:18:06;4.97;;;3.10;;
77174;SDS011;66153;53.488;10.244;2023-02-24T09:20:33;6.03;;;2.90;;
77174;SDS011;66153;53.488;10.244;2023-02-24T09:23:18;4.78;;;2.85;;
77174;SDS011;66153;53.488;10.244;2023-02-24T09:25:45;7.50;;;3.35;;
77174;SDS011;66153;53.488;10.244;2023-02-24T09:28:15;7.07;;;3.58;;
77174;SDS011;66153;53.488;10.244;2023-02-24T09:31:02;5.90;;;3.30;;
77174;SDS011;66153;53.488;10.244;2023-02-24T09:33:32;6.78;;;3.40;;
77174;SDS011;66153;53.488;10.244;2023-02-24T09:36:06;5.97;;;3.30;;
77174;SDS011;66153;53.488;10.244;2023-02-24T09:38:59;5.90;;;3.40;;
77174;SDS011;66153;53.488;10.244;2023-02-24T09:44:04;6.90;;;3.30;;
77174;SDS011;66153;53.488;10.244;2023-02-24T09:51:29;4.95;;;2.72;;
77174;SDS011;66153;53.488;10.244;2023-02-24T09:54:09;7.55;;;4.45;;
77174;SDS011;66153;53.488;10.244;2023-02-24T09:56:39;7.38;;;4.28;;
77174;SDS011;66153;53.488;10.244;2023-02-24T09:59:11;7.65;;;3.97;;
77174;SDS011;66153;53.488;10.244;2023-02-24T10:01:42;8.00;;;4.78;;
77174;SDS011;66153;53.488;10.244;2023-02-24T10:07:04;10.38;;;5.20;;
77174;SDS011;66153;53.488;10.244;2023-02-24T10:09:41;6.75;;;3.80;;
77174;SDS011;66153;53.488;10.244;2023-02-24T10:12:13;9.65;;;5.30;;
77174;SDS011;66153;53.488;10.244;2023-02-24T10:14:45;11.13;;;5.40;;
77174;SDS011;66153;53.488;10.244;2023-02-24T10:17:18;9.77;;;5.18;;
77174;SDS011;66153;53.488;10.244;2023-02-24T10:19:58;9.68;;;5.43;;
77174;SDS011;66153;53.488;10.244;2023-02-24T10:25:10;9.38;;;5.35;;
77174;SDS011;66153;53.488;10.244;2023-02-24T10:35:43;7.82;;;4.38;;
77174;SDS011;66153;53.488;10.244;2023-02-24T10:38:09;7.40;;;3.70;;
77174;SDS011;66153;53.488;10.244;2023-02-24T10:40:46;9.52;;;4.55;;
77174;SDS011;66153;53.488;10.244;2023-02-24T10:43:21;9.60;;;4.43;;
77174;SDS011;66153;53.488;10.244;2023-02-24T10:45:54;10.10;;;5.60;;
77174;SDS011;66153;53.488;10.244;2023-02-24T10:48:30;9.15;;;4.45;;
77174;SDS011;66153;53.488;10.244;2023-02-24T10:51:06;9.20;;;4.82;;
77174;SDS011;66153;53.488;10.244;2023-02-24T10:53:34;9.85;;;4.70;;
77174;SDS011;66153;53.488;10.244;2023-02-24T10:58:46;9.65;;;4.65;;
77174;SDS011;66153;53.488;10.244;2023-02-24T11:01:18;8.10;;;4.22;;
77174;SDS011;66153;53.488;10.244;2023-02-24T11:03:51;9.90;;;5.55;;
77174;SDS011;66153;53.488;10.244;2023-02-24T11:06:36;10.18;;;5.60;;
77174;SDS011;66153;53.488;10.244;2023-02-24T11:09:05;8.50;;;4.50;;
77174;SDS011;66153;53.488;10.244;2023-02-24T11:12:01;10.32;;;4.90;;
77174;SDS011;66153;53.488;10.244;2023-02-24T11:17:31;10.98;;;5.85;;
77174;SDS011;66153;53.488;10.244;2023-02-24T11:20:05;10.18;;;5.40;;
77174;SDS011;66153;53.488;10.244;2023-02-24T11:22:38;11.00;;;5.40;;
77174;SDS011;66153;53.488;10.244;2023-02-24T11:25:52;10.82;;;5.65;;
77174;SDS011;66153;53.488;10.244;2023-02-24T11:27:53;13.32;;;5.93;;
77174;SDS011;66153;53.488;10.244;2023-02-24T11:38:10;12.65;;;6.10;;
77174;SDS011;66153;53.488;10.244;2023-02-24T11:40:42;11.18;;;5.57;;
77174;SDS011;66153;53.488;10.244;2023-02-24T11:43:14;12.43;;;6.30;;
77174;SDS011;66153;53.488;10.244;2023-02-24T11:45:44;12.63;;;6.10;;
77174;SDS011;66153;53.488;10.244;2023-02-24T11:48:18;11.75;;;6.50;;
77174;SDS011;66153;53.488;10.244;2023-02-24T11:50:46;10.70;;;5.97;;
77174;SDS011;66153;53.488;10.244;2023-02-24T11:53:27;12.05;;;6.40;;
77174;SDS011;66153;53.488;10.244;2023-02-24T11:56:16;11.75;;;6.25;;
77174;SDS011;66153;53.488;10.244;2023-02-24T12:01:20;11.90;;;6.25;;
77174;SDS011;66153;53.488;10.244;2023-02-24T12:06:23;10.75;;;5.38;;
77174;SDS011;66153;53.488;10.244;2023-02-24T12:08:52;10.85;;;5.40;;
77174;SDS011;66153;53.488;10.244;2023-02-24T12:14:10;11.93;;;6.07;;
77174;SDS011;66153;53.488;10.244;2023-02-24T12:16:38;9.93;;;5.65;;
77174;SDS011;66153;53.488;10.244;2023-02-24T12:21:50;10.80;;;5.57;;
77174;SDS011;66153;53.488;10.244;2023-02-24T12:24:16;9.90;;;5.85;;
77174;SDS011;66153;53.488;10.244;2023-02-24T12:26:52;13.25;;;6.18;;
77174;SDS011;66153;53.488;10.244;2023-02-24T12:29:29;10.93;;;6.28;;
77174;SDS011;66153;53.488;10.244;2023-02-24T12:40:09;11.57;;;5.90;;
77174;SDS011;66153;53.488;10.244;2023-02-24T12:50:20;12.45;;;6.05;;
77174;SDS011;66153;53.488;10.244;2023-02-24T12:52:53;14.52;;;7.38;;
77174;SDS011;66153;53.488;10.244;2023-02-24T13:03:06;14.20;;;7.13;;
77174;SDS011;66153;53.488;10.244;2023-02-24T13:05:40;13.98;;;6.50;;
77174;SDS011;66153;53.488;10.244;2023-02-24T13:13:15;15.45;;;7.40;;
77174;SDS011;66153;53.488;10.244;2023-02-24T13:15:55;13.30;;;6.97;;
77174;SDS011;66153;53.488;10.244;2023-02-24T13:18:22;18.85;;;8.13;;
77174;SDS011;66153;53.488;10.244;2023-02-24T13:20:48;14.63;;;6.72;;
77174;SDS011;66153;53.488;10.244;2023-02-24T13:23:25;12.18;;;6.53;;
77174;SDS011;66153;53.488;10.244;2023-02-24T13:25:52;17.40;;;6.47;;
77174;SDS011;66153;53.488;10.244;2023-02-24T13:28:29;12.60;;;6.75;;
77174;SDS011;66153;53.488;10.244;2023-02-24T13:31:04;13.90;;;6.60;;
77174;SDS011;66153;53.488;10.244;2023-02-24T13:33:32;14.90;;;6.78;;
77174;SDS011;66153;53.488;10.244;2023-02-24T13:36:07;12.43;;;5.85;;
77174;SDS011;66153;53.488;10.244;2023-02-24T13:38:35;12.07;;;5.60;;
77174;SDS011;66153;53.488;10.244;2023-02-24T13:41:15;12.05;;;5.38;;
77174;SDS011;66153;53.488;10.244;2023-02-24T13:44:01;8.30;;;4.93;;
77174;SDS011;66153;53.488;10.244;2023-02-24T13:46:28;10.55;;;5.90;;
77174;SDS011;66153;53.488;10.244;2023-02-24T13:51:58;11.68;;;4.68;;
77174;SDS011;66153;53.488;10.244;2023-02-24T13:54:32;10.10;;;5.20;;
77174;SDS011;66153;53.488;10.244;2023-02-24T14:02:04;13.13;;;5.90;;
77174;SDS011;66153;53.488;10.244;2023-02-24T14:04:35;9.85;;;5.07;;
77174;SDS011;66153;53.488;10.244;2023-02-24T14:07:16;10.90;;;5.43;;
77174;SDS011;66153;53.488;10.244;2023-02-24T14:09:45;10.32;;;5.63;;
77174;SDS011;66153;53.488;10.244;2023-02-24T14:12:13;11.95;;;4.68;;
77174;SDS011;66153;53.488;10.244;2023-02-24T14:14:41;9.80;;;4.68;;
77174;SDS011;66153;53.488;10.244;2023-02-24T14:17:18;12.18;;;5.10;;
77174;SDS011;66153;53.488;10.244;2023-02-24T14:19:44;10.15;;;4.10;;
77174;SDS011;66153;53.488;10.244;2023-02-24T14:22:16;11.15;;;4.95;;
77174;SDS011;66153;53.488;10.244;2023-02-24T14:24:43;9.45;;;4.68;;
77174;SDS011;66153;53.488;10.244;2023-02-24T14:27:24;10.70;;;5.10;;
77174;SDS011;66153;53.488;10.244;2023-02-24T14:29:51;6.93;;;3.55;;
77174;SDS011;66153;53.488;10.244;2023-02-24T14:32:21;10.82;;;3.22;;
77174;SDS011;66153;53.488;10.244;2023-02-24T14:34:48;7.85;;;3.70;;
77174;SDS011;66153;53.488;10.244;2023-02-24T14:37:14;9.57;;;3.10;;
77174;SDS011;66153;53.488;10.244;2023-02-24T14:39:48;4.50;;;2.00;;
77174;SDS011;66153;53.488;10.244;2023-02-24T14:42:14;10.13;;;2.47;;
77174;SDS011;66153;53.488;10.244;2023-02-24T14:44:41;6.20;;;2.28;;
77174;SDS011;66153;53.488;10.244;2023-02-24T14:47:08;7.95;;;2.00;;
77174;SDS011;66153;53.488;10.244;2023-02-24T14:49:35;7.60;;;1.50;;
77174;SDS011;66153;53.488;10.244;2023-02-24T14:55:04;6.20;;;1.40;;
77174;SDS011;66153;53.488;10.244;2023-02-24T14:57:33;4.97;;;1.15;;
77174;SDS011;66153;53.488;10.244;2023-02-24T15:00:02;7.68;;;1.42;;
77174;SDS011;66153;53.488;10.244;2023-02-24T15:02:36;6.18;;;1.30;;
77174;SDS011;66153;53.488;10.244;2023-02-24T15:05:05;7.97;;;1.35;;
77174;SDS011;66153;53.488;10.244;2023-02-24T15:07:32;6.55;;;1.35;;
77174;SDS011;66153;53.488;10.244;2023-02-24T15:09:59;8.65;;;1.38;;
77174;SDS011;66153;53.488;10.244;2023-02-24T15:12:44;8.80;;;1.52;;
77174;SDS011;66153;53.488;10.244;2023-02-24T15:17:44;5.72;;;1.27;;
77174;SDS011;66153;53.488;10.244;2023-02-24T15:22:55;7.93;;;1.38;;
77174;SDS011;66153;53.488;10.244;2023-02-24T15:25:23;8.75;;;1.58;;
77174;SDS011;66153;53.488;10.244;2023-02-24T15:27:50;8.10;;;1.40;;
77174;SDS011;66153;53.488;10.244;2023-02-24T15:30:24;5.97;;;1.73;;
77174;SDS011;66153;53.488;10.244;2023-02-24T15:32:57;11.30;;;1.63;;
77174;SDS011;66153;53.488;10.244;2023-02-24T15:35:24;7.43;;;1.08;;
77174;SDS011;66153;53.488;10.244;2023-02-24T15:37:50;6.45;;;1.20;;
77174;SDS011;66153;53.488;10.244;2023-02-24T15:43:29;9.25;;;1.13;;
77174;SDS011;66153;53.488;10.244;2023-02-24T15:45:35;6.30;;;1.38;;
77174;SDS011;66153;53.488;10.244;2023-02-24T15:48:02;3.30;;;1.27;;
77174;SDS011;66153;53.488;10.244;2023-02-24T15:50:29;5.18;;;1.17;;
77174;SDS011;66153;53.488;10.244;2023-02-24T15:52:57;8.65;;;1.45;;
77174;SDS011;66153;53.488;10.244;2023-02-24T15:55:24;4.47;;;1.20;;
77174;SDS011;66153;53.488;10.244;2023-02-24T15:58:01;4.72;;;1.23;;
77174;SDS011;66153;53.488;10.244;2023-02-24T16:00:27;5.07;;;1.05;;
77174;SDS011;66153;53.488;10.244;2023-02-24T16:02:55;7.88;;;1.38;;
77174;SDS011;66153;53.488;10.244;2023-02-24T16:05:21;7.72;;;1.08;;
77174;SDS011;66153;53.488;10.244;2023-02-24T16:07:47;4.43;;;1.55;;
77174;SDS011;66153;53.488;10.244;2023-02-24T16:10:18;3.80;;;1.10;;
77174;SDS011;66153;53.488;10.244;2023-02-24T16:12:46;5.35;;;1.00;;
77174;SDS011;66153;53.488;10.244;2023-02-24T16:15:14;6.45;;;1.00;;
77174;SDS011;66153;53.488;10.244;2023-02-24T16:17:42;4.78;;;0.90;;
77174;SDS011;66153;53.488;10.244;2023-02-24T16:20:12;6.85;;;1.38;;
77174;SDS011;66153;53.488;10.244;2023-02-24T16:22:38;9.52;;;1.60;;
77174;SDS011;66153;53.488;10.244;2023-02-24T16:25:06;7.20;;;0.85;;
77174;SDS011;66153;53.488;10.244;2023-02-24T16:27:32;3.72;;;1.02;;
77174;SDS011;66153;53.488;10.244;2023-02-24T16:29:58;5.75;;;1.10;;
77174;SDS011;66153;53.488;10.244;2023-02-24T16:32:24;5.45;;;1.00;;
77174;SDS011;66153;53.488;10.244;2023-02-24T16:34:53;8.02;;;1.48;;
77174;SDS011;66153;53.488;10.244;2023-02-24T16:37:24;6.35;;;1.70;;
77174;SDS011;66153;53.488;10.244;2023-02-24T16:39:51;8.43;;;1.48;;
77174;SDS011;66153;53.488;10.244;2023-02-24T16:42:17;7.88;;;1.30;;
77174;SDS011;66153;53.488;10.244;2023-02-24T16:44:43;4.22;;;0.93;;
77174;SDS011;66153;53.488;10.244;2023-02-24T16:47:13;4.28;;;0.90;;
77174;SDS011;66153;53.488;10.244;2023-02-24T16:49:40;5.85;;;1.60;;
77174;SDS011;66153;53.488;10.244;2023-02-24T16:52:06;7.32;;;1.50;;
77174;SDS011;66153;53.488;10.244;2023-02-24T16:54:32;7.32;;;1.38;;
77174;SDS011;66153;53.488;10.244;2023-02-24T16:56:58;5.50;;;1.40;;
77174;SDS011;66153;53.488;10.244;2023-02-24T16:59:24;6.72;;;1.30;;
77174;SDS011;66153;53.488;10.244;2023-02-24T17:01:53;6.78;;;1.20;;
77174;SDS011;66153;53.488;10.244;2023-02-24T17:04:20;6.43;;;1.15;;
77174;SDS011;66153;53.488;10.244;2023-02-24T17:06:48;4.90;;;1.38;;
77174;SDS011;66153;53.488;10.244;2023-02-24T17:09:14;10.95;;;1.20;;
77174;SDS011;66153;53.488;10.244;2023-02-24T17:11:41;6.05;;;1.13;;
77174;SDS011;66153;53.488;10.244;2023-02-24T17:14:18;5.47;;;1.20;;
77174;SDS011;66153;53.488;10.244;2023-02-24T17:16:44;6.78;;;1.33;;
77174;SDS011;66153;53.488;10.244;2023-02-24T17:19:10;5.03;;;1.33;;
77174;SDS011;66153;53.488;10.244;2023-02-24T17:21:38;8.00;;;1.00;;
77174;SDS011;66153;53.488;10.244;2023-02-24T17:24:05;6.60;;;1.40;;
77174;SDS011;66153;53.488;10.244;2023-02-24T17:26:31;5.55;;;1.23;;